»·PEaware :: WAT175 KLAS-KSAN

WAT175 :: KLAS-KSAN

FLIGHT INFORMATION

Flight Status: Arrived
Operator:
Walker Air Transport
More flights by this operator :: More flights under this callsign
Pilot: Michael C. (27126)
Aircraft: BOEING 737-800
(B738)
More flights by this aircraft type
Origin: KLAS McCarran Intl
United States
Destination: KSAN San Diego Intl-Lindbergh
United States
More flights between these airports :: More routes between these airports
Route: +BOACH8 LVELL LUCKI1
File this flight plan on PilotEdge
Remarks: RMK / SIMBRIEF
Altitude:
(Current/Filed)
28,000ft
Speed:
(Current/Filed)
449kts
Departed: 12-Jul-20 07:01 PM
Arrived: 12-Jul-20 07:42 PM
Distance/Time
Traveled:
225nm/0:41
Distance/Time
To Go:
Arrived

Flight Plot

Page will automatically refresh every two minutes.

Flight plan parsing failed; only flown route is shown


Map Options




Map Legend


Flown Route
Filed Route
Departure Airport
Arrival Airport
Navaid (VOR, NDB)
Fix

Horizontal Profiles

Position Reports

Time Latitude Longitude Heading Altitude Ground
Speed
12-Jul-20 18:37 36.079908 -115.147057 61 2121ft 0kts
12-Jul-20 18:38 36.079908 -115.147057 61 2121ft 0kts
12-Jul-20 18:39 36.079908 -115.147057 61 2121ft 0kts
12-Jul-20 18:40 36.079908 -115.147057 61 2121ft 0kts
12-Jul-20 18:41 36.079908 -115.147057 61 2121ft 0kts
12-Jul-20 18:42 36.079908 -115.147057 61 2121ft 0kts
12-Jul-20 18:43 36.079909 -115.147057 61 2121ft 0kts
12-Jul-20 18:44 36.079909 -115.147057 61 2121ft 0kts
12-Jul-20 18:45 36.079908 -115.147057 61 2121ft 0kts
12-Jul-20 18:46 36.079908 -115.147057 61 2121ft 0kts
12-Jul-20 18:47 36.079908 -115.147057 61 2121ft 0kts
12-Jul-20 18:48 36.079908 -115.147057 61 2121ft 0kts
12-Jul-20 18:49 36.079821 -115.147548 102 2121ft 2kts
12-Jul-20 18:50 36.080092 -115.147916 158 2121ft 0kts
12-Jul-20 18:51 36.080091 -115.147916 158 2121ft 0kts
12-Jul-20 18:52 36.079852 -115.147798 158 2121ft 6kts
12-Jul-20 18:53 36.079238 -115.147465 155 2121ft 6kts
12-Jul-20 18:54 36.077604 -115.144170 94 2121ft 21kts
12-Jul-20 18:55 36.077552 -115.137506 89 2121ft 23kts
12-Jul-20 18:56 36.077557 -115.130551 90 2121ft 21kts
12-Jul-20 18:57 36.077567 -115.124652 90 2121ft 19kts
12-Jul-20 18:58 36.077566 -115.122295 87 2121ft 1kts
12-Jul-20 18:59 36.076380 -115.122379 268 2121ft 23kts
12-Jul-20 19:00 36.077453 -115.171630 268 3283ft 181kts
12-Jul-20 19:01 36.067235 -115.242681 236 5269ft 237kts
12-Jul-20 19:02 36.006868 -115.285421 201 7892ft 270kts
12-Jul-20 19:03 35.931047 -115.306822 187 10451ft 299kts
12-Jul-20 19:04 35.840268 -115.313279 178 12287ft 342kts
12-Jul-20 19:05 35.743622 -115.302194 177 14521ft 362kts
12-Jul-20 19:07 35.633880 -115.295946 184 15413ft 406kts
12-Jul-20 19:08 35.519380 -115.300932 184 17281ft 416kts
12-Jul-20 19:09 35.401285 -115.305661 184 18789ft 431kts
12-Jul-20 19:10 35.278100 -115.310560 184 20144ft 444kts
12-Jul-20 19:11 35.152406 -115.315514 183 21568ft 451kts
12-Jul-20 19:12 35.024051 -115.320530 183 22816ft 460kts
12-Jul-20 19:13 34.897703 -115.325469 182 23873ft 470kts
12-Jul-20 19:14 34.764276 -115.348910 194 25009ft 477kts
12-Jul-20 19:15 34.635976 -115.397102 198 26156ft 482kts
12-Jul-20 19:16 34.508610 -115.451772 200 27603ft 481kts
12-Jul-20 19:17 34.383167 -115.507643 200 27910ft 476kts
12-Jul-20 19:18 34.265515 -115.580669 209 27908ft 477kts
12-Jul-20 19:19 34.144005 -115.645487 207 27903ft 477kts
12-Jul-20 19:20 34.054898 -115.763150 236 27883ft 480kts
12-Jul-20 19:21 33.982599 -115.898813 236 27777ft 479kts
12-Jul-20 19:22 33.918986 -116.039934 242 27680ft 480kts
12-Jul-20 19:23 33.857723 -116.184385 242 27672ft 480kts
12-Jul-20 19:24 33.794643 -116.325343 236 27716ft 480kts
12-Jul-20 19:24 33.733218 -116.436526 235 27584ft 475kts
12-Jul-20 19:26 33.647049 -116.590496 235 27730ft 473kts
12-Jul-20 19:27 33.570793 -116.719547 223 27789ft 469kts
12-Jul-20 19:27 33.480025 -116.767073 184 27849ft 408kts
12-Jul-20 19:29 33.347866 -116.776268 183 26235ft 403kts
12-Jul-20 19:29 33.256637 -116.782236 183 23773ft 388kts
12-Jul-20 19:30 33.151227 -116.789123 183 20459ft 371kts
12-Jul-20 19:32 33.039324 -116.794808 182 17642ft 340kts
12-Jul-20 19:32 32.958760 -116.797397 182 14386ft 355kts
12-Jul-20 19:33 32.859219 -116.804194 184 10433ft 355kts
12-Jul-20 19:34 32.768027 -116.835698 205 7141ft 328kts
12-Jul-20 19:35 32.691991 -116.883417 230 4984ft 279kts
12-Jul-20 19:36 32.677544 -116.961711 283 3930ft 241kts
12-Jul-20 19:37 32.694212 -117.028223 286 2921ft 202kts
12-Jul-20 19:38 32.708023 -117.084758 286 1959ft 151kts
12-Jul-20 19:39 32.719830 -117.133465 287 927ft 152kts
12-Jul-20 19:40 32.729656 -117.173617 286 224ft 159kts
12-Jul-20 19:41 32.736321 -117.201751 236 25ft 14kts
12-Jul-20 19:42 32.736059 -117.201976 198 25ft 0kts
12-Jul-20 19:43 32.735068 -117.202550 230 25ft 11kts
12-Jul-20 19:44 32.734500 -117.203414 231 25ft 0kts

Navigation Log

Ident Type
Flight plan parsing failed, navigation log unavailable